Time;durP1;ratioP1;P1;durP2;ratioP2;P2;SDS_P1;SDS_P2;PMS_P1;PMS_P2;Temp;Humidity;BMP_temperature;BMP_pressure;BME280_temperature;BME280_humidity;BME280_pressure;Samples;Min_cycle;Max_cycle;Signal;HPM_P1;HPM_P2
2021/12/31 00:00:39;;;;;;;9.38;7.80;;;;;;;5.67;90.86;95676.00;5054724;28;20210;-73
2021/12/31 00:03:05;;;;;;;8.73;7.78;;;;;;;5.60;91.44;95674.34;5052616;28;20268;-75
2021/12/31 00:05:32;;;;;;;8.80;7.30;;;;;;;5.67;91.85;95668.44;5052483;28;20206;-74
2021/12/31 00:07:59;;;;;;;9.40;8.50;;;;;;;5.63;91.28;95667.63;5054449;28;20673;-74
2021/12/31 00:10:27;;;;;;;10.55;9.00;;;;;;;5.52;91.60;95681.94;5053298;28;20272;-73
2021/12/31 00:12:56;;;;;;;10.98;8.75;;;;;;;5.60;92.17;95679.38;5053674;28;20308;-73
2021/12/31 00:15:23;;;;;;;8.80;7.90;;;;;;;5.77;90.88;95685.19;5052988;28;20194;-75
2021/12/31 00:17:50;;;;;;;9.90;8.10;;;;;;;5.67;90.48;95691.13;5054802;28;20315;-74
2021/12/31 00:20:24;;;;;;;10.15;8.98;;;;;;;5.53;91.68;95693.69;5051568;28;20203;-74
2021/12/31 00:23:07;;;;;;;11.02;8.65;;;;;;;5.43;92.22;95692.91;5053063;28;20470;-72
2021/12/31 00:25:39;;;;;;;10.77;9.05;;;;;;;5.36;93.39;95691.25;5053513;28;20198;-72
2021/12/31 00:28:06;;;;;;;12.63;8.68;;;;;;;5.45;92.76;95685.31;5052278;28;20234;-72
2021/12/31 00:30:36;;;;;;;12.93;9.15;;;;;;;5.68;91.29;95691.13;5052578;28;20191;-71
2021/12/31 00:33:05;;;;;;;13.20;9.40;;;;;;;5.72;91.18;95691.91;5053043;28;20363;-72
2021/12/31 00:35:33;;;;;;;11.85;8.20;;;;;;;5.47;91.94;95699.59;5054591;28;20259;-74
2021/12/31 00:38:12;;;;;;;10.77;9.27;;;;;;;5.50;91.84;95703.78;5052116;28;20295;-74
2021/12/31 00:40:40;;;;;;;12.85;9.52;;;;;;;5.64;91.64;95708.78;5051879;28;20206;-73
2021/12/31 00:43:10;;;;;;;13.50;9.57;;;;;;;5.63;90.97;95707.13;5053546;28;20225;-74
2021/12/31 00:45:39;;;;;;;14.85;10.00;;;;;;;5.50;92.11;95695.38;5054242;28;20207;-74
2021/12/31 00:48:10;;;;;;;13.82;10.48;;;;;;;5.51;91.24;95681.94;5053333;28;20290;-73
2021/12/31 00:50:38;;;;;;;18.92;10.00;;;;;;;5.54;91.42;95675.19;5053955;28;20204;-73
2021/12/31 00:53:05;;;;;;;14.75;10.05;;;;;;;5.45;91.81;95678.59;5052172;28;20194;-73
2021/12/31 00:55:45;;;;;;;15.60;10.57;;;;;;;5.58;91.48;95665.94;5051761;28;20261;-73
2021/12/31 00:58:12;;;;;;;15.30;10.90;;;;;;;5.57;91.71;95664.28;5055846;28;20764;-74
2021/12/31 01:00:39;;;;;;;16.08;11.25;;;;;;;5.54;91.46;95659.25;5056655;28;20837;-73
2021/12/31 01:03:05;;;;;;;15.07;10.82;;;;;;;5.54;91.88;95665.13;5057851;28;20203;-73
2021/12/31 01:05:32;;;;;;;19.58;11.68;;;;;;;5.53;91.26;95670.16;5055269;28;20233;-74
2021/12/31 01:07:59;;;;;;;14.50;11.18;;;;;;;5.47;91.69;95669.34;5056969;28;20208;-73
2021/12/31 01:10:27;;;;;;;12.80;9.57;;;;;;;5.36;91.43;95668.56;5056339;28;20191;-74
2021/12/31 01:12:55;;;;;;;15.45;10.02;;;;;;;5.38;91.58;95676.13;5057501;28;20234;-73
2021/12/31 01:15:34;;;;;;;16.23;11.25;;;;;;;5.29;91.45;95669.41;5056367;28;20296;-74
2021/12/31 01:18:21;;;;;;;18.80;9.63;;;;;;;5.32;91.26;95671.09;5055794;28;20203;-74
2021/12/31 01:20:48;;;;;;;8.52;7.65;;;;;;;5.41;90.42;95678.63;5055984;28;20213;-73
2021/12/31 01:23:17;;;;;;;10.10;8.25;;;;;;;5.29;90.96;95671.94;5055634;28;21217;-73
2021/12/31 01:25:45;;;;;;;8.05;7.18;;;;;;;5.36;89.50;95687.88;5049343;28;20295;-74
2021/12/31 01:28:13;;;;;;;8.38;6.70;;;;;;;5.38;90.09;95696.28;5056337;28;20233;-74
2021/12/31 01:30:40;;;;;;;7.22;6.63;;;;;;;5.22;89.89;95698.00;5055558;28;20206;-74
2021/12/31 01:33:08;;;;;;;7.38;6.53;;;;;;;5.25;90.20;95685.38;5057115;28;20306;-74
2021/12/31 01:35:34;;;;;;;6.75;6.10;;;;;;;5.11;90.47;95699.72;5054864;28;20589;-74
2021/12/31 01:38:01;;;;;;;8.02;7.00;;;;;;;5.17;90.51;95684.59;5055468;28;20674;-74
2021/12/31 01:40:28;;;;;;;7.63;6.70;;;;;;;5.31;90.18;95695.47;5056669;28;20198;-74
2021/12/31 01:42:55;;;;;;;7.55;6.75;;;;;;;5.23;89.62;95699.66;5056006;28;20720;-73
2021/12/31 01:45:24;;;;;;;6.90;6.17;;;;;;;5.11;91.19;95689.66;5056210;28;20210;-74
2021/12/31 01:48:04;;;;;;;8.20;6.40;;;;;;;5.02;91.75;95694.69;5055348;28;20202;-74
2021/12/31 01:50:31;;;;;;;7.90;6.85;;;;;;;5.14;90.64;95704.75;5056048;28;20553;-74
2021/12/31 01:52:58;;;;;;;8.38;7.25;;;;;;;5.18;91.39;95705.59;5056861;28;20264;-73
2021/12/31 01:55:27;;;;;;;7.28;6.57;;;;;;;5.30;89.91;95705.53;5055383;28;20292;-74
2021/12/31 01:57:55;;;;;;;8.07;7.22;;;;;;;5.21;89.97;95711.44;5054954;28;20194;-73
2021/12/31 02:00:24;;;;;;;6.68;5.97;;;;;;;4.98;91.17;95708.13;5056131;28;20275;-73
2021/12/31 02:02:52;;;;;;;9.20;7.38;;;;;;;5.05;91.18;95714.84;5056211;28;20284;-74
2021/12/31 02:05:19;;;;;;;9.25;7.13;;;;;;;5.06;90.89;95714.00;5055451;28;20202;-73
2021/12/31 02:07:45;;;;;;;7.65;6.90;;;;;;;5.23;90.40;95714.78;5055291;28;20207;-74
2021/12/31 02:10:12;;;;;;;7.22;6.50;;;;;;;5.37;89.07;95713.09;5055034;28;20256;-73
2021/12/31 02:12:41;;;;;;;7.53;5.85;;;;;;;5.26;89.61;95704.72;5055931;28;20231;-73
2021/12/31 02:15:09;;;;;;;7.97;6.47;;;;;;;5.25;89.42;95705.56;5055735;28;20198;-74
2021/12/31 02:17:38;;;;;;;7.20;6.53;;;;;;;5.19;89.50;95708.09;5054757;28;20681;-74
2021/12/31 02:20:08;;;;;;;6.40;5.80;;;;;;;5.11;89.07;95700.56;5055083;28;20955;-73
2021/12/31 02:22:37;;;;;;;6.47;5.45;;;;;;;5.16;89.49;95703.06;5054739;28;20220;-74
2021/12/31 02:25:07;;;;;;;6.85;6.15;;;;;;;5.19;89.63;95720.72;5055066;28;20699;-74
2021/12/31 02:27:38;;;;;;;6.85;6.15;;;;;;;5.25;88.83;95712.28;5053585;28;20207;-73
2021/12/31 02:30:07;;;;;;;7.13;5.82;;;;;;;5.33;89.03;95720.66;5055651;28;20673;-73
2021/12/31 02:32:34;;;;;;;8.88;7.28;;;;;;;5.34;88.49;95717.28;5054697;28;20344;-74
2021/12/31 02:35:01;;;;;;;9.85;7.47;;;;;;;5.24;89.57;95711.44;5054593;28;20266;-74
2021/12/31 02:37:29;;;;;;;8.40;7.40;;;;;;;5.23;89.33;95709.75;5054674;28;20275;-74
2021/12/31 02:39:56;;;;;;;10.10;7.85;;;;;;;5.20;89.63;95724.06;5055724;28;20234;-74
2021/12/31 02:42:23;;;;;;;10.10;7.53;;;;;;;5.27;89.62;95721.50;5054022;28;20213;-74
2021/12/31 02:44:51;;;;;;;8.93;7.20;;;;;;;5.18;89.40;95724.06;5055361;28;20198;-74
2021/12/31 02:47:18;;;;;;;10.02;7.65;;;;;;;5.10;89.99;95730.78;5055249;28;20961;-74
2021/12/31 02:49:47;;;;;;;7.68;6.40;;;;;;;5.17;89.36;95724.91;5054864;28;20202;-74
2021/12/31 02:52:14;;;;;;;7.50;6.70;;;;;;;5.10;88.81;95743.38;5054840;28;20297;-74
2021/12/31 02:54:45;;;;;;;9.15;6.30;;;;;;;5.02;89.42;95735.84;5055242;28;20736;-74
2021/12/31 02:57:12;;;;;;;12.68;6.35;;;;;;;4.93;89.49;95740.06;5054285;28;20198;-74
2021/12/31 02:59:40;;;;;;;6.85;6.15;;;;;;;4.87;89.56;95745.94;5054024;28;20233;-74
2021/12/31 03:02:07;;;;;;;7.78;6.97;;;;;;;4.97;88.87;95747.59;5055396;28;20211;-74
2021/12/31 03:04:38;;;;;;;10.63;6.72;;;;;;;4.95;89.18;95745.94;5052953;28;20195;-73
2021/12/31 03:07:06;;;;;;;7.40;6.70;;;;;;;5.14;88.08;95745.06;5055427;28;20752;-73
2021/12/31 03:09:34;;;;;;;7.40;6.47;;;;;;;5.13;87.95;95748.44;5053644;28;20203;-73
2021/12/31 03:12:03;;;;;;;8.05;6.55;;;;;;;5.15;87.67;95743.38;5053377;28;21016;-73
2021/12/31 03:14:30;;;;;;;9.82;6.93;;;;;;;5.00;87.63;95760.19;5054105;28;20544;-73
2021/12/31 03:16:58;;;;;;;10.55;7.22;;;;;;;5.12;87.79;95756.81;5054820;28;20288;-73
2021/12/31 03:19:26;;;;;;;6.53;5.93;;;;;;;4.98;87.56;95758.50;5052706;28;20230;-74
2021/12/31 03:21:53;;;;;;;7.72;6.25;;;;;;;5.10;87.48;95758.50;5054949;28;20203;-73
2021/12/31 03:24:20;;;;;;;8.57;6.40;;;;;;;5.02;86.21;95758.50;5053470;28;20256;-73
2021/12/31 03:26:47;;;;;;;7.70;5.70;;;;;;;4.89;87.01;95753.50;5055314;28;20775;-73
2021/12/31 03:29:15;;;;;;;5.97;5.43;;;;;;;4.85;86.79;95771.97;5053254;28;20291;-73
2021/12/31 03:31:42;;;;;;;7.13;5.38;;;;;;;5.01;86.16;95771.09;5053315;28;20296;-74
2021/12/31 03:34:10;;;;;;;5.90;5.30;;;;;;;4.92;86.26;95776.16;5053258;28;20277;-74
2021/12/31 03:36:37;;;;;;;5.43;4.77;;;;;;;4.90;85.92;95771.13;5054413;28;20210;-74
2021/12/31 03:39:04;;;;;;;5.90;5.40;;;;;;;4.85;86.09;95771.97;5053781;28;20238;-73
2021/12/31 03:41:31;;;;;;;6.05;5.55;;;;;;;4.79;86.39;95773.63;5053870;28;20203;-73
2021/12/31 03:43:58;;;;;;;8.23;6.28;;;;;;;4.82;86.29;95787.91;5053489;28;20221;-74
2021/12/31 03:46:27;;;;;;;6.28;5.68;;;;;;;4.79;86.13;95780.34;5053768;28;20641;-73
2021/12/31 03:48:55;;;;;;;7.53;5.97;;;;;;;4.77;85.88;95777.81;5054363;28;20644;-73
2021/12/31 03:51:21;;;;;;;5.78;5.20;;;;;;;4.81;85.60;95797.97;5053814;28;20694;-72
2021/12/31 03:53:49;;;;;;;5.55;5.00;;;;;;;4.75;85.95;95793.78;5054160;28;20264;-73
2021/12/31 03:56:17;;;;;;;5.60;5.10;;;;;;;4.72;86.53;95797.13;5054551;28;20599;-73
2021/12/31 03:58:43;;;;;;;5.20;4.68;;;;;;;4.55;86.61;95772.78;5052835;28;20284;-74
2021/12/31 04:01:10;;;;;;;7.70;5.65;;;;;;;4.74;86.63;95797.97;5054325;28;20677;-73
2021/12/31 04:03:38;;;;;;;6.90;5.43;;;;;;;4.88;86.50;95792.94;5054513;28;20195;-73
2021/12/31 04:06:05;;;;;;;7.70;6.65;;;;;;;4.76;86.21;95788.72;5053944;28;20202;-73
2021/12/31 04:08:32;;;;;;;6.87;6.17;;;;;;;4.84;86.29;95781.19;5053023;28;20208;-73
2021/12/31 04:10:59;;;;;;;9.70;6.75;;;;;;;4.76;87.27;95778.66;5053871;28;20823;-73
2021/12/31 04:13:25;;;;;;;6.85;6.13;;;;;;;4.60;87.09;95782.03;5053965;28;20291;-74
2021/12/31 04:15:52;;;;;;;6.97;6.20;;;;;;;4.56;87.34;95784.53;5053320;28;20751;-74
2021/12/31 04:18:19;;;;;;;7.53;6.50;;;;;;;4.41;87.88;95787.88;5052993;28;20230;-73
2021/12/31 04:20:48;;;;;;;6.40;5.60;;;;;;;4.43;87.61;95783.69;5054207;28;20234;-73
2021/12/31 04:23:27;;;;;;;7.47;6.03;;;;;;;4.47;87.00;95767.72;5052448;28;20214;-73
2021/12/31 04:25:55;;;;;;;6.83;5.90;;;;;;;4.45;86.65;95769.44;5054581;28;20201;-73
2021/12/31 04:28:21;;;;;;;6.07;5.47;;;;;;;4.41;86.69;95770.25;5053819;28;20593;-74
2021/12/31 04:30:48;;;;;;;8.30;5.90;;;;;;;4.55;86.75;95773.63;5054001;28;20283;-74
2021/12/31 04:33:15;;;;;;;6.10;5.50;;;;;;;4.28;87.29;95783.63;5056473;28;20772;-73
2021/12/31 04:35:42;;;;;;;6.78;6.13;;;;;;;4.28;87.48;95786.16;5058496;28;20206;-73
2021/12/31 04:38:10;;;;;;;6.85;5.57;;;;;;;4.29;87.63;95787.84;5056865;28;20643;-73
2021/12/31 04:40:36;;;;;;;7.55;5.90;;;;;;;4.27;88.14;95792.03;5056868;28;20733;-74
2021/12/31 04:43:03;;;;;;;7.70;6.53;;;;;;;4.41;87.57;95791.22;5056640;28;20308;-73
2021/12/31 04:45:30;;;;;;;8.70;6.38;;;;;;;4.24;87.94;95797.03;5058011;28;20199;-74
2021/12/31 04:47:57;;;;;;;6.23;5.63;;;;;;;4.38;88.17;95798.78;5057846;28;20206;-73
2021/12/31 04:50:23;;;;;;;7.28;6.55;;;;;;;4.50;86.80;95797.94;5057782;28;20206;-73
2021/12/31 04:52:50;;;;;;;6.88;6.20;;;;;;;4.28;87.21;95804.59;5055734;28;20730;-73
2021/12/31 04:55:18;;;;;;;7.00;6.30;;;;;;;4.22;88.19;95803.75;5057804;28;20227;-73
2021/12/31 04:57:48;;;;;;;7.13;6.43;;;;;;;4.35;87.84;95792.88;5056718;28;20265;-73
2021/12/31 05:00:15;;;;;;;6.85;6.15;;;;;;;4.44;87.91;95795.44;5056885;28;20301;-73
2021/12/31 05:02:42;;;;;;;6.93;5.83;;;;;;;4.65;87.00;95802.16;5057511;28;20251;-73
2021/12/31 05:05:09;;;;;;;8.32;5.75;;;;;;;4.66;86.52;95804.69;5056418;28;20206;-73
2021/12/31 05:07:36;;;;;;;6.63;5.93;;;;;;;4.52;87.74;95805.50;5057208;28;20198;-73
2021/12/31 05:10:04;;;;;;;6.63;5.90;;;;;;;4.56;86.93;95792.91;5054936;28;20639;-73
2021/12/31 05:12:34;;;;;;;6.07;5.43;;;;;;;4.62;87.11;95799.66;5055988;28;20698;-74
2021/12/31 05:15:02;;;;;;;6.40;5.53;;;;;;;4.57;86.87;95807.19;5057772;28;20209;-74
2021/12/31 05:17:29;;;;;;;6.70;6.00;;;;;;;4.58;86.77;95808.88;5056140;28;20203;-74
2021/12/31 05:19:56;;;;;;;6.32;5.72;;;;;;;4.48;87.28;95807.16;5056676;28;20291;-74
2021/12/31 05:22:22;;;;;;;14.02;9.40;;;;;;;4.66;86.66;95802.19;5055152;28;20257;-73
2021/12/31 05:24:49;;;;;;;11.20;5.45;;;;;;;4.43;86.61;95808.84;5056937;28;20249;-74
2021/12/31 05:27:16;;;;;;;9.18;7.78;;;;;;;4.44;87.38;95818.09;5055667;28;20264;-73
2021/12/31 05:29:44;;;;;;;12.32;8.25;;;;;;;4.39;87.00;95802.13;5056127;28;20288;-73
2021/12/31 05:32:11;;;;;;;8.80;6.85;;;;;;;4.53;87.51;95805.50;5056562;28;20199;-73
2021/12/31 05:34:38;;;;;;;7.13;6.15;;;;;;;4.56;87.16;95808.03;5056021;28;20302;-74
2021/12/31 05:37:05;;;;;;;7.20;6.50;;;;;;;4.44;86.73;95801.31;5056557;28;20282;-74
2021/12/31 05:39:31;;;;;;;9.70;6.10;;;;;;;4.56;86.94;95799.63;5055636;28;20227;-73
2021/12/31 05:41:58;;;;;;;6.50;5.85;;;;;;;4.52;87.22;95805.50;5056042;28;20214;-73
2021/12/31 05:44:25;;;;;;;7.40;6.50;;;;;;;4.39;86.85;95812.19;5055501;28;20717;-73
2021/12/31 05:46:53;;;;;;;10.48;6.68;;;;;;;4.25;87.04;95803.75;5055069;28;20255;-73
2021/12/31 05:49:20;;;;;;;6.57;5.95;;;;;;;4.25;87.79;95818.84;5055812;28;20288;-73
2021/12/31 05:51:47;;;;;;;10.00;6.70;;;;;;;4.40;87.46;95818.91;5055337;28;20289;-72
2021/12/31 05:54:14;;;;;;;8.38;6.82;;;;;;;4.56;86.99;95818.09;5056680;28;20652;-72
2021/12/31 05:56:41;;;;;;;9.23;6.45;;;;;;;4.90;85.25;95830.72;5054430;28;20263;-73
2021/12/31 05:59:07;;;;;;;46.67;23.67;;;;;;;4.97;85.31;95827.34;5055940;28;20207;-72
2021/12/31 06:01:34;;;;;;;27.77;15.52;;;;;;;4.82;85.49;95832.38;5055207;28;21238;-72
2021/12/31 06:04:02;;;;;;;15.40;10.10;;;;;;;4.83;85.59;95839.09;5056338;28;20248;-73
2021/12/31 06:06:29;;;;;;;7.90;7.10;;;;;;;4.97;85.30;95832.38;5055873;28;20280;-73
2021/12/31 06:08:55;;;;;;;8.82;7.05;;;;;;;4.99;84.73;95830.72;5055791;28;20736;-73
2021/12/31 06:11:22;;;;;;;6.30;5.68;;;;;;;5.02;84.55;95830.72;5054629;28;20199;-73
2021/12/31 06:13:59;;;;;;;8.45;6.57;;;;;;;4.85;84.84;95827.38;5056151;28;20789;-73
2021/12/31 06:16:26;;;;;;;7.55;6.43;;;;;;;4.78;86.29;95827.34;5054867;28;20202;-73
2021/12/31 06:18:53;;;;;;;7.68;6.10;;;;;;;4.88;86.41;95833.25;5055100;28;20289;-73
2021/12/31 06:21:22;;;;;;;6.43;5.72;;;;;;;5.14;85.29;95830.72;5054506;28;20226;-73
2021/12/31 06:23:48;;;;;;;6.47;5.75;;;;;;;5.14;84.24;95835.78;5055946;28;20284;-73
2021/12/31 06:26:15;;;;;;;8.95;5.47;;;;;;;5.15;84.50;95831.56;5053978;28;20721;-74
2021/12/31 06:28:42;;;;;;;6.60;5.57;;;;;;;5.24;84.39;95837.44;5055093;28;20616;-73
2021/12/31 06:31:08;;;;;;;9.90;6.82;;;;;;;5.30;83.96;95832.38;5055201;28;20198;-74
2021/12/31 06:33:36;;;;;;;6.55;5.95;;;;;;;5.28;84.28;95839.09;5055901;28;20214;-74
2021/12/31 06:36:02;;;;;;;6.70;6.10;;;;;;;5.42;83.58;95851.72;5053967;28;20218;-74
2021/12/31 06:38:31;;;;;;;7.05;5.70;;;;;;;5.30;83.96;95855.06;5055950;28;20206;-74
2021/12/31 06:40:57;;;;;;;6.57;5.47;;;;;;;5.36;84.53;95856.75;5053812;28;20222;-74
2021/12/31 06:43:24;;;;;;;7.03;6.22;;;;;;;5.28;85.21;95859.28;5055623;28;20206;-74
2021/12/31 06:45:51;;;;;;;7.32;6.18;;;;;;;5.40;84.63;95858.44;5054412;28;20202;-74
2021/12/31 06:48:18;;;;;;;8.45;6.63;;;;;;;5.35;84.36;95850.03;5054781;28;20284;-73
2021/12/31 06:50:44;;;;;;;9.35;6.00;;;;;;;5.42;84.66;95857.59;5054786;28;20203;-73
2021/12/31 06:53:11;;;;;;;6.57;5.25;;;;;;;5.42;83.41;95856.75;5053916;28;20206;-73
2021/12/31 06:55:39;;;;;;;7.43;5.67;;;;;;;5.50;83.57;95851.69;5055053;28;20202;-73
2021/12/31 06:58:06;;;;;;;9.40;6.95;;;;;;;5.62;83.43;95849.16;5054881;28;20276;-73
2021/12/31 07:00:34;;;;;;;11.98;6.80;;;;;;;5.64;82.81;95842.44;5055111;28;20239;-72
2021/12/31 07:03:06;;;;;;;13.07;8.20;;;;;;;5.96;80.88;95850.78;5053640;28;20974;-72
2021/12/31 07:05:33;;;;;;;10.02;6.80;;;;;;;5.99;81.38;95853.28;5054273;28;20243;-73
2021/12/31 07:08:00;;;;;;;7.15;5.72;;;;;;;6.23;80.14;95843.94;5054599;28;20248;-72
2021/12/31 07:10:28;;;;;;;7.75;5.93;;;;;;;6.08;80.01;95845.69;5037123;28;20206;-72
2021/12/31 07:13:00;;;;;;;9.32;7.22;;;;;;;5.99;80.88;95845.72;5054864;28;21114;-72
2021/12/31 07:15:26;;;;;;;8.00;5.65;;;;;;;6.10;79.85;95851.56;5053988;28;20270;-73
2021/12/31 07:17:53;;;;;;;11.55;6.50;;;;;;;6.08;80.11;95855.78;5053570;28;20623;-74
2021/12/31 07:20:21;;;;;;;6.45;5.20;;;;;;;6.38;79.55;95848.94;5055324;28;20230;-74
2021/12/31 07:22:48;;;;;;;6.20;5.60;;;;;;;6.52;79.40;95842.13;5053553;28;20264;-74
2021/12/31 07:25:14;;;;;;;6.72;5.47;;;;;;;6.68;79.23;95858.84;5054514;28;20223;-74
2021/12/31 07:27:41;;;;;;;6.00;5.43;;;;;;;6.89;78.10;95857.06;5053858;28;20704;-74
2021/12/31 07:30:12;;;;;;;6.55;5.25;;;;;;;6.89;76.18;95846.97;5055137;28;20203;-74
2021/12/31 07:32:39;;;;;;;5.82;5.25;;;;;;;7.01;76.03;95846.84;5053874;28;20210;-74
2021/12/31 07:35:06;;;;;;;5.53;4.95;;;;;;;7.11;76.39;95849.31;5054428;28;20726;-75
2021/12/31 07:37:33;;;;;;;9.82;5.88;;;;;;;6.81;76.97;95847.84;5054494;28;20689;-74
2021/12/31 07:40:04;;;;;;;8.15;5.78;;;;;;;6.76;77.66;95844.50;5054089;28;20298;-74
2021/12/31 07:42:30;;;;;;;11.30;6.35;;;;;;;6.87;76.97;95848.66;5055138;28;20271;-74
2021/12/31 07:44:57;;;;;;;15.07;9.55;;;;;;;6.87;75.57;95853.72;5053624;28;20198;-74
2021/12/31 07:47:26;;;;;;;17.40;11.48;;;;;;;6.80;75.99;95853.75;5053873;28;20252;-72
2021/12/31 07:49:52;;;;;;;21.67;12.27;;;;;;;6.71;77.03;95853.78;5054852;28;20291;-73
2021/12/31 07:52:19;;;;;;;17.48;10.40;;;;;;;6.70;76.64;95848.75;5054272;28;20656;-73
2021/12/31 07:54:46;;;;;;;16.95;10.20;;;;;;;6.83;76.45;95855.41;5052866;28;20207;-73
2021/12/31 07:57:12;;;;;;;16.75;10.27;;;;;;;6.83;77.04;95858.78;5054384;28;20748;-73
2021/12/31 07:59:39;;;;;;;13.82;9.32;;;;;;;6.89;76.94;95859.59;5054179;28;20711;-73
2021/12/31 08:02:06;;;;;;;14.95;8.68;;;;;;;6.81;77.06;95874.78;5054204;28;20630;-72
2021/12/31 08:04:34;;;;;;;13.13;8.90;;;;;;;6.60;77.30;95865.66;5052319;28;20206;-72
2021/12/31 08:07:01;;;;;;;13.65;9.50;;;;;;;6.61;77.09;95867.34;5056028;28;20202;-72
2021/12/31 08:09:28;;;;;;;14.57;9.10;;;;;;;6.70;76.97;95869.78;5058042;28;20194;-73
2021/12/31 08:11:54;;;;;;;14.63;8.52;;;;;;;6.95;76.66;95869.63;5058692;28;20237;-72
2021/12/31 08:14:21;;;;;;;13.63;9.63;;;;;;;6.89;76.85;95882.34;5056649;28;20190;-73
2021/12/31 08:16:48;;;;;;;10.65;9.15;;;;;;;6.69;78.23;95870.63;5058176;28;20296;-73
2021/12/31 08:19:17;;;;;;;15.65;9.98;;;;;;;6.78;78.53;95869.75;5058123;28;20206;-72
2021/12/31 08:21:45;;;;;;;17.95;10.93;;;;;;;7.05;77.86;95876.31;5058497;28;20296;-73
2021/12/31 08:24:12;;;;;;;27.20;14.43;;;;;;;7.71;77.41;95866.50;5056693;28;20201;-74
2021/12/31 08:26:38;;;;;;;15.63;10.15;;;;;;;7.60;75.46;95879.25;5057743;28;20670;-74
2021/12/31 08:29:08;;;;;;;15.85;9.63;;;;;;;7.81;75.23;95865.56;5058471;28;20649;-73
2021/12/31 08:31:35;;;;;;;16.02;10.02;;;;;;;7.67;74.77;95868.19;5056535;28;20268;-74
2021/12/31 08:34:01;;;;;;;19.05;9.30;;;;;;;7.93;74.39;95862.88;5057359;28;20222;-74
2021/12/31 08:36:28;;;;;;;12.55;9.32;;;;;;;8.27;74.26;95857.44;5056209;28;20214;-73
2021/12/31 08:38:56;;;;;;;12.45;9.00;;;;;;;9.65;68.99;95857.16;5058778;28;20210;-74
2021/12/31 08:41:24;;;;;;;14.32;8.27;;;;;;;11.44;63.82;95848.31;5057912;28;20234;-73
2021/12/31 08:43:50;;;;;;;11.65;7.80;;;;;;;13.20;57.23;95834.13;5056051;28;20298;-73
2021/12/31 08:46:17;;;;;;;13.02;7.85;;;;;;;14.82;52.32;95832.75;5056102;28;20755;-73
2021/12/31 08:48:44;;;;;;;8.13;7.18;;;;;;;16.05;49.27;95834.66;5057798;28;20260;-73
2021/12/31 08:51:11;;;;;;;7.32;6.40;;;;;;;16.43;46.79;95829.56;5057523;28;20198;-74
2021/12/31 08:53:38;;;;;;;11.05;7.15;;;;;;;16.20;47.38;95831.41;5056941;28;20242;-74
2021/12/31 08:56:06;;;;;;;7.32;6.43;;;;;;;15.43;49.40;95827.78;5056010;28;20268;-74
2021/12/31 08:58:33;;;;;;;11.20;7.95;;;;;;;15.85;48.54;95829.50;5056332;28;20195;-74
2021/12/31 09:01:00;;;;;;;15.43;7.15;;;;;;;16.19;47.73;95822.06;5053440;28;20282;-74
2021/12/31 09:03:26;;;;;;;8.98;8.07;;;;;;;16.26;47.29;95817.50;5054950;28;20199;-74
2021/12/31 09:05:53;;;;;;;12.88;9.93;;;;;;;16.81;46.65;95810.75;5055653;28;20685;-74
2021/12/31 09:08:20;;;;;;;13.85;8.98;;;;;;;15.71;48.61;95826.69;5056730;28;20962;-75
2021/12/31 09:10:47;;;;;;;13.95;9.75;;;;;;;16.66;46.75;95814.84;5056778;28;20826;-75
2021/12/31 09:13:15;;;;;;;15.20;8.75;;;;;;;16.69;46.21;95813.88;5055875;28;20712;-74
2021/12/31 09:15:42;;;;;;;8.30;7.50;;;;;;;16.11;47.30;95810.44;5054985;28;20794;-74
2021/12/31 09:18:08;;;;;;;10.57;7.68;;;;;;;15.90;47.81;95810.47;5055895;28;20206;-74
2021/12/31 09:20:35;;;;;;;12.80;8.10;;;;;;;15.72;48.47;95806.13;5054970;28;20194;-74
2021/12/31 09:23:02;;;;;;;9.48;7.72;;;;;;;15.73;48.62;95801.84;5053989;28;20203;-75
2021/12/31 09:25:29;;;;;;;15.32;8.20;;;;;;;15.19;50.18;95805.72;5054539;28;20665;-75
2021/12/31 09:27:56;;;;;;;11.10;8.77;;;;;;;14.30;51.76;95803.97;5056612;28;20202;-74
2021/12/31 09:30:24;;;;;;;10.73;8.10;;;;;;;13.60;53.57;95811.53;5056252;28;20209;-74
2021/12/31 09:32:51;;;;;;;9.18;8.13;;;;;;;13.22;55.25;95807.66;5056549;28;20218;-73
2021/12/31 09:35:18;;;;;;;11.07;7.78;;;;;;;13.18;55.28;95797.59;5054698;28;20580;-75
2021/12/31 09:37:45;;;;;;;11.00;8.52;;;;;;;13.14;56.11;95798.53;5057120;28;20661;-74
2021/12/31 09:40:15;;;;;;;11.45;8.57;;;;;;;12.69;56.55;95799.09;5056347;28;20202;-74
2021/12/31 09:42:46;;;;;;;14.60;9.65;;;;;;;12.58;57.50;95806.25;5055774;28;20676;-74
2021/12/31 09:45:15;;;;;;;12.40;8.63;;;;;;;12.10;58.82;95794.03;5055367;28;20865;-74
2021/12/31 09:47:44;;;;;;;11.10;8.65;;;;;;;12.05;60.28;95790.75;5056804;28;20657;-74
2021/12/31 09:50:11;;;;;;;12.88;9.10;;;;;;;12.24;59.79;95791.06;5056157;28;20733;-74
2021/12/31 09:52:38;;;;;;;11.80;8.13;;;;;;;12.43;59.16;95783.72;5055390;28;20198;-74
2021/12/31 09:55:05;;;;;;;12.10;8.00;;;;;;;11.89;60.60;95787.78;5053808;28;20560;-74
2021/12/31 09:57:32;;;;;;;8.93;7.35;;;;;;;11.85;60.89;95777.75;5056554;28;20873;-74
2021/12/31 10:00:03;;;;;;;9.52;6.35;;;;;;;12.03;61.21;95773.84;5056635;28;20210;-73
2021/12/31 10:02:33;;;;;;;9.55;6.00;;;;;;;11.96;60.22;95769.78;5054722;28;20229;-74
2021/12/31 10:05:02;;;;;;;6.03;5.47;;;;;;;12.34;60.19;95777.19;5054791;28;20279;-74
2021/12/31 10:07:30;;;;;;;7.55;5.35;;;;;;;12.36;59.71;95764.41;5055699;28;20198;-74
2021/12/31 10:10:06;;;;;;;6.82;5.75;;;;;;;12.06;60.47;95774.59;5056326;28;20312;-74
2021/12/31 10:12:47;;;;;;;6.43;5.53;;;;;;;11.76;61.59;95762.66;5055060;28;20234;-74
2021/12/31 10:15:14;;;;;;;5.60;5.10;;;;;;;11.56;62.80;95769.13;5054343;28;20714;-74
2021/12/31 10:17:41;;;;;;;7.45;5.53;;;;;;;11.68;62.21;95760.31;5056076;28;20202;-74
2021/12/31 10:20:10;;;;;;;6.68;5.80;;;;;;;11.37;62.76;95754.38;5054586;28;20213;-74
2021/12/31 10:22:36;;;;;;;9.13;5.72;;;;;;;11.16;63.45;95751.47;5056216;28;20283;-74
2021/12/31 10:25:17;;;;;;;6.32;5.68;;;;;;;11.16;64.11;95753.19;5053099;28;20207;-74
2021/12/31 10:27:44;;;;;;;11.68;5.15;;;;;;;11.31;63.81;95750.28;5056208;28;20878;-74
2021/12/31 10:30:11;;;;;;;6.07;5.50;;;;;;;11.29;64.06;95746.09;5055112;28;20198;-74
2021/12/31 10:32:40;;;;;;;6.85;5.70;;;;;;;11.15;64.34;95737.09;5054371;28;20885;-74
2021/12/31 10:35:13;;;;;;;9.27;5.68;;;;;;;10.76;66.35;95728.72;5054899;28;20281;-74
2021/12/31 10:37:45;;;;;;;5.78;5.20;;;;;;;11.09;65.11;95731.34;5055177;28;20343;-74
2021/12/31 10:40:12;;;;;;;10.55;5.97;;;;;;;11.06;65.27;95724.59;5054335;28;20592;-74
2021/12/31 10:42:40;;;;;;;9.10;5.45;;;;;;;11.05;65.44;95717.84;5054582;28;20292;-74
2021/12/31 10:45:09;;;;;;;6.75;4.97;;;;;;;11.15;65.47;95721.81;5054636;28;20692;-74
2021/12/31 10:47:38;;;;;;;9.90;4.82;;;;;;;10.99;65.54;95714.63;5053993;28;20686;-74
2021/12/31 10:50:15;;;;;;;10.88;6.05;;;;;;;10.95;66.20;95710.47;5054597;28;20649;-74
2021/12/31 10:52:52;;;;;;;8.00;5.15;;;;;;;11.01;65.57;95715.41;5054882;28;20263;-75
2021/12/31 10:55:22;;;;;;;5.93;5.43;;;;;;;10.99;65.44;95709.53;5053582;28;20224;-74
2021/12/31 10:57:49;;;;;;;7.30;5.88;;;;;;;10.67;66.61;95716.22;5054471;28;20202;-74
2021/12/31 11:00:18;;;;;;;8.85;6.03;;;;;;;10.52;67.94;95714.03;5054843;28;20769;-73
2021/12/31 11:02:44;;;;;;;11.68;7.00;;;;;;;10.63;67.33;95726.53;5054372;28;20234;-73
2021/12/31 11:05:15;;;;;;;13.40;6.50;;;;;;;10.64;67.96;95726.47;5054964;28;20721;-74
2021/12/31 11:07:43;;;;;;;6.97;6.28;;;;;;;10.71;67.78;95727.16;5054107;28;20210;-75
2021/12/31 11:10:11;;;;;;;8.93;6.50;;;;;;;10.62;67.81;95722.31;5054711;28;20206;-74
2021/12/31 11:12:38;;;;;;;8.95;6.65;;;;;;;10.48;68.62;95717.53;5053679;28;20692;-76
2021/12/31 11:15:06;;;;;;;6.85;5.97;;;;;;;10.29;69.65;95721.34;5053256;28;20209;-74
2021/12/31 11:17:33;;;;;;;10.02;6.15;;;;;;;10.26;69.30;95727.34;5054782;28;20206;-74
2021/12/31 11:20:00;;;;;;;5.97;5.38;;;;;;;10.42;68.78;95720.19;5053766;28;20247;-74
2021/12/31 11:22:31;;;;;;;6.10;5.28;;;;;;;10.43;69.52;95724.41;5054658;28;20233;-74
2021/12/31 11:25:21;;;;;;;8.63;6.00;;;;;;;10.42;70.11;95717.66;5053150;28;20684;-74
2021/12/31 11:27:49;;;;;;;10.70;6.20;;;;;;;10.51;69.28;95720.00;5053654;28;20265;-74
2021/12/31 11:30:27;;;;;;;11.25;6.63;;;;;;;10.48;69.37;95714.97;5053919;28;20203;-75
2021/12/31 11:32:57;;;;;;;7.43;4.88;;;;;;;10.42;69.55;95715.94;5052541;28;20206;-74
2021/12/31 11:35:32;;;;;;;4.65;4.25;;;;;;;10.21;70.44;95717.25;5052112;28;21713;-74
2021/12/31 11:38:02;;;;;;;5.93;4.82;;;;;;;10.30;70.56;95717.94;5053379;28;20287;-74
2021/12/31 11:40:32;;;;;;;9.25;4.05;;;;;;;10.38;70.85;95716.06;5053402;28;20669;-74